Time;durP1;ratioP1;P1;durP2;ratioP2;P2;SDS_P1;SDS_P2;PMS_P1;PMS_P2;Temp;Humidity;BMP_temperature;BMP_pressure;BME280_temperature;BME280_humidity;BME280_pressure;Samples;Min_cycle;Max_cycle;Signal;HPM_P1;HPM_P2
2023/02/18 00:02:25;;;;;;;11.43;10.63;;;10.20;99.90;;;;;;5020156;28;20429;-45
2023/02/18 00:04:54;;;;;;;11.90;11.10;;;10.20;99.90;;;;;;5010146;28;20197;-46
2023/02/18 00:07:19;;;;;;;12.10;11.40;;;10.30;99.90;;;;;;5010695;28;20477;-47
2023/02/18 00:09:45;;;;;;;12.00;11.30;;;10.30;99.90;;;;;;5029440;28;20449;-48
2023/02/18 00:12:10;;;;;;;12.33;11.53;;;10.30;99.90;;;;;;5029460;28;20224;-47
2023/02/18 00:14:37;;;;;;;11.90;11.30;;;10.30;99.90;;;;;;5031544;28;20183;-46
2023/02/18 00:17:03;;;;;;;12.33;11.60;;;10.40;99.90;;;;;;5033046;28;20196;-45
2023/02/18 00:19:28;;;;;;;12.97;12.10;;;10.30;99.90;;;;;;5029360;28;20441;-47
2023/02/18 00:21:54;;;;;;;12.87;11.87;;;10.30;99.90;;;;;;5022327;28;20665;-47
2023/02/18 00:24:21;;;;;;;12.23;11.50;;;10.40;99.90;;;;;;5029354;28;20186;-46
2023/02/18 00:26:50;;;;;;;11.30;10.70;;;10.40;99.90;;;;;;5028005;28;20199;-46
2023/02/18 00:29:16;;;;;;;11.60;10.90;;;10.40;99.90;;;;;;5029275;28;20476;-47
2023/02/18 00:31:42;;;;;;;12.40;11.70;;;10.30;99.90;;;;;;5025566;28;20413;-46
2023/02/18 00:34:10;;;;;;;12.43;11.73;;;10.40;99.90;;;;;;5016642;28;20411;-50
2023/02/18 00:36:36;;;;;;;12.27;11.63;;;10.30;99.90;;;;;;5029914;28;21226;-46
2023/02/18 00:39:04;;;;;;;12.50;11.70;;;10.40;99.90;;;;;;5017945;28;20448;-48
2023/02/18 00:41:30;;;;;;;12.50;11.80;;;10.30;99.90;;;;;;5027958;28;20239;-47
2023/02/18 00:43:56;;;;;;;12.80;11.90;;;10.30;99.90;;;;;;5012618;28;20422;-44
2023/02/18 00:46:23;;;;;;;12.47;11.60;;;10.30;99.90;;;;;;5009403;28;20428;-45
2023/02/18 00:48:49;;;;;;;12.50;11.70;;;10.40;99.90;;;;;;5014240;28;20218;-47
2023/02/18 00:51:14;;;;;;;12.30;11.60;;;10.30;99.90;;;;;;5029387;28;20745;-46
2023/02/18 00:53:40;;;;;;;12.60;11.70;;;10.40;99.90;;;;;;5027051;28;20197;-45
2023/02/18 00:56:06;;;;;;;12.50;11.63;;;10.30;99.90;;;;;;5009758;28;20190;-45
2023/02/18 00:58:33;;;;;;;12.10;11.50;;;10.30;99.90;;;;;;5028226;28;20428;-46
2023/02/18 01:00:59;;;;;;;12.27;11.67;;;10.20;99.90;;;;;;5018397;28;20425;-48
2023/02/18 01:03:25;;;;;;;12.10;11.40;;;10.20;99.90;;;;;;5020649;28;20432;-47
2023/02/18 01:05:51;;;;;;;13.03;12.23;;;10.20;99.90;;;;;;5022232;28;20446;-47
2023/02/18 01:08:19;;;;;;;12.13;11.43;;;10.20;99.90;;;;;;5023656;28;20452;-45
2023/02/18 01:10:46;;;;;;;11.90;11.30;;;10.20;99.90;;;;;;5024175;28;20443;-46
2023/02/18 01:13:13;;;;;;;13.10;12.00;;;10.20;99.90;;;;;;5032544;28;20525;-49
2023/02/18 01:15:40;;;;;;;12.30;11.60;;;10.10;99.90;;;;;;5032574;28;20422;-49
2023/02/18 01:18:06;;;;;;;12.17;11.47;;;10.20;99.90;;;;;;5016541;28;20904;-48
2023/02/18 01:20:33;;;;;;;11.80;11.10;;;10.10;99.90;;;;;;5023017;28;20985;-46
2023/02/18 01:22:58;;;;;;;11.97;11.27;;;10.10;99.90;;;;;;5018361;28;20428;-46
2023/02/18 01:25:24;;;;;;;11.90;11.20;;;10.10;99.90;;;;;;5012757;28;20481;-47
2023/02/18 01:27:50;;;;;;;11.67;10.90;;;10.00;99.90;;;;;;5012395;28;20229;-45
2023/02/18 01:30:17;;;;;;;12.77;11.60;;;9.90;99.90;;;;;;5019972;28;20222;-49
2023/02/18 01:32:43;;;;;;;12.57;11.77;;;10.00;99.90;;;;;;5026812;28;20205;-46
2023/02/18 01:35:14;;;;;;;12.87;12.13;;;10.00;99.90;;;;;;5013606;28;20506;-47
2023/02/18 01:37:40;;;;;;;12.60;11.80;;;9.90;99.90;;;;;;5018680;28;20433;-48
2023/02/18 01:40:09;;;;;;;13.33;12.47;;;9.90;99.90;;;;;;5025509;28;20445;-48
2023/02/18 01:42:35;;;;;;;12.90;12.10;;;9.80;99.90;;;;;;5026880;28;20272;-48
2023/02/18 01:45:37;;;;;;;12.60;11.90;;;9.80;99.90;;;;;;5031156;28;21000;-44
2023/02/18 01:48:14;;;;;;;12.63;11.70;;;9.80;99.90;;;;;;5031660;28;20501;-44
2023/02/18 01:50:43;;;;;;;13.07;12.27;;;9.70;99.90;;;;;;5015184;28;20466;-48
2023/02/18 01:53:10;;;;;;;12.80;12.10;;;9.60;99.90;;;;;;5012302;28;20445;-51
2023/02/18 01:55:38;;;;;;;12.87;12.07;;;9.60;99.90;;;;;;5012328;28;20399;-47
2023/02/18 01:58:03;;;;;;;13.43;12.63;;;9.60;99.90;;;;;;5012864;28;20436;-48
2023/02/18 02:00:31;;;;;;;12.10;11.30;;;9.60;99.90;;;;;;5013422;28;20945;-46
2023/02/18 02:02:57;;;;;;;12.70;11.73;;;9.60;99.90;;;;;;5012208;28;20179;-48
2023/02/18 02:05:23;;;;;;;13.10;12.00;;;9.50;99.90;;;;;;5019171;28;20446;-47
2023/02/18 02:07:51;;;;;;;12.30;11.60;;;9.50;99.90;;;;;;5031129;28;20179;-48
2023/02/18 02:10:17;;;;;;;12.50;11.67;;;9.50;99.90;;;;;;5019040;28;20608;-46
2023/02/18 02:13:19;;;;;;;12.60;11.80;;;9.50;99.90;;;;;;5011933;28;20545;-49
2023/02/18 02:16:05;;;;;;;13.20;12.40;;;9.50;99.90;;;;;;5025341;28;20479;-51
2023/02/18 02:18:37;;;;;;;12.70;11.90;;;9.50;99.90;;;;;;5022644;28;20556;-48
2023/02/18 02:21:24;;;;;;;12.83;12.07;;;9.40;99.90;;;;;;5025510;28;20493;-46
2023/02/18 02:24:17;;;;;;;12.50;11.80;;;9.40;99.90;;;;;;5020797;28;20423;-45
2023/02/18 02:27:09;;;;;;;12.57;11.77;;;9.40;99.90;;;;;;5030525;28;21276;-49
2023/02/18 02:30:08;;;;;;;12.33;11.53;;;9.50;99.90;;;;;;5030833;28;20478;-47
2023/02/18 02:33:23;;;;;;;12.50;11.70;;;9.40;99.90;;;;;;5024078;28;20461;-49
2023/02/18 02:36:11;;;;;;;12.43;11.53;;;9.40;99.90;;;;;;5022935;28;20443;-50
2023/02/18 02:38:52;;;;;;;12.57;11.90;;;9.40;99.90;;;;;;5030872;28;20425;-45
2023/02/18 02:41:42;;;;;;;12.40;11.70;;;9.40;99.90;;;;;;5023402;28;20449;-47
2023/02/18 02:44:29;;;;;;;12.70;11.80;;;9.40;99.90;;;;;;5021803;28;20434;-47
2023/02/18 02:47:06;;;;;;;12.47;11.70;;;9.30;99.90;;;;;;5011317;28;20427;-48
2023/02/18 02:49:59;;;;;;;12.10;11.47;;;9.30;99.90;;;;;;5011582;28;20479;-47
2023/02/18 02:52:31;;;;;;;11.67;10.97;;;9.40;99.90;;;;;;5022729;28;21007;-46
2023/02/18 02:54:57;;;;;;;12.23;11.53;;;9.40;99.90;;;;;;5027592;28;20488;-47
2023/02/18 02:57:23;;;;;;;12.43;11.73;;;9.40;99.90;;;;;;5030949;28;21197;-49
2023/02/18 02:59:54;;;;;;;11.50;10.80;;;9.40;99.90;;;;;;5022378;28;20501;-49
2023/02/18 03:02:54;;;;;;;11.40;10.60;;;9.50;99.90;;;;;;5011207;28;20595;-48
2023/02/18 03:05:23;;;;;;;11.90;11.20;;;9.50;99.90;;;;;;5011265;28;20590;-48
2023/02/18 03:08:09;;;;;;;12.10;11.40;;;9.50;99.90;;;;;;5011491;28;20591;-44
2023/02/18 03:11:11;;;;;;;12.53;11.77;;;9.50;99.90;;;;;;5005237;28;20440;-48
2023/02/18 03:13:40;;;;;;;11.90;11.20;;;9.60;99.90;;;;;;4999299;28;20503;-45
2023/02/18 03:16:33;;;;;;;12.23;11.23;;;9.60;99.90;;;;;;5025565;28;21034;-47
2023/02/18 03:19:16;;;;;;;11.80;10.57;;;9.70;99.90;;;;;;5030264;28;20445;-46
2023/02/18 03:21:48;;;;;;;10.93;10.27;;;9.80;99.90;;;;;;5025750;28;20449;-48
2023/02/18 03:24:14;;;;;;;11.33;10.57;;;9.80;99.90;;;;;;5010723;28;20460;-44
2023/02/18 03:26:51;;;;;;;11.70;10.70;;;9.80;99.90;;;;;;5012079;28;20415;-48
2023/02/18 03:29:19;;;;;;;11.87;11.20;;;9.70;99.90;;;;;;5011747;28;20255;-44
2023/02/18 03:31:51;;;;;;;11.80;11.00;;;9.80;99.90;;;;;;5024425;28;20422;-46
2023/02/18 03:34:24;;;;;;;12.03;11.13;;;9.70;99.90;;;;;;5020368;28;20411;-47
2023/02/18 03:36:51;;;;;;;11.97;11.00;;;9.80;99.90;;;;;;5030199;28;21208;-44
2023/02/18 03:39:19;;;;;;;11.57;10.80;;;9.80;99.90;;;;;;5028511;28;20468;-52
2023/02/18 03:41:45;;;;;;;11.60;10.93;;;9.80;99.90;;;;;;5030425;28;20534;-46
2023/02/18 03:44:11;;;;;;;11.70;11.00;;;9.80;99.90;;;;;;5030072;28;20498;-45
2023/02/18 03:46:42;;;;;;;11.30;10.60;;;9.80;99.90;;;;;;5030287;28;20904;-46
2023/02/18 03:49:10;;;;;;;11.97;11.17;;;9.80;99.90;;;;;;5044315;28;20469;-48
2023/02/18 03:51:35;;;;;;;11.10;10.50;;;9.80;99.90;;;;;;5030154;28;20945;-47
2023/02/18 03:54:01;;;;;;;11.70;10.87;;;9.70;99.90;;;;;;5029854;28;20392;-47
2023/02/18 03:56:27;;;;;;;11.80;10.90;;;9.70;99.90;;;;;;5013454;28;20183;-50
2023/02/18 03:58:52;;;;;;;10.87;10.03;;;9.60;99.90;;;;;;5029974;28;20176;-45
2023/02/18 04:01:18;;;;;;;11.17;10.30;;;9.70;99.90;;;;;;5011065;28;20432;-48
2023/02/18 04:03:44;;;;;;;12.00;11.20;;;9.70;99.90;;;;;;5010058;28;20196;-47
2023/02/18 04:06:09;;;;;;;11.57;10.80;;;9.80;99.90;;;;;;5010200;28;20216;-50
2023/02/18 04:08:35;;;;;;;12.40;11.50;;;9.80;99.90;;;;;;5010021;28;20205;-46
2023/02/18 04:11:01;;;;;;;11.27;10.60;;;9.70;99.90;;;;;;5010278;28;20186;-46
2023/02/18 04:13:27;;;;;;;11.40;10.60;;;9.70;99.90;;;;;;5010149;28;21052;-46
2023/02/18 04:15:53;;;;;;;11.70;10.90;;;9.60;99.90;;;;;;5023144;28;20185;-46
2023/02/18 04:18:19;;;;;;;11.60;10.80;;;9.60;99.90;;;;;;5039471;28;20432;-48
2023/02/18 04:20:47;;;;;;;11.30;10.60;;;9.70;99.90;;;;;;5018946;28;20640;-48
2023/02/18 04:23:13;;;;;;;11.80;11.10;;;9.70;99.90;;;;;;5029663;28;21224;-50
2023/02/18 04:25:39;;;;;;;11.70;11.00;;;9.80;99.90;;;;;;5029537;28;20510;-46
2023/02/18 04:28:04;;;;;;;11.80;11.10;;;9.90;99.90;;;;;;5028818;28;20326;-48
2023/02/18 04:30:30;;;;;;;12.00;11.23;;;9.80;99.90;;;;;;5024717;28;20666;-50
2023/02/18 04:32:56;;;;;;;11.53;10.97;;;9.80;99.90;;;;;;5009482;28;20420;-44
2023/02/18 04:35:21;;;;;;;11.83;11.10;;;9.70;99.90;;;;;;5009759;28;20190;-47
2023/02/18 04:37:47;;;;;;;11.20;10.50;;;9.70;99.90;;;;;;5015508;28;20517;-47
2023/02/18 04:40:13;;;;;;;11.30;10.60;;;9.80;99.90;;;;;;5028800;28;20253;-46
2023/02/18 04:42:39;;;;;;;11.63;10.90;;;9.80;99.90;;;;;;5029765;28;20867;-48
2023/02/18 04:45:05;;;;;;;11.90;11.10;;;9.70;99.90;;;;;;5028497;28;20442;-47
2023/02/18 04:47:31;;;;;;;12.27;11.40;;;9.70;99.90;;;;;;5027934;28;20250;-45
2023/02/18 04:49:57;;;;;;;11.67;10.77;;;9.70;99.90;;;;;;5009915;28;20596;-46
2023/02/18 04:52:22;;;;;;;11.73;10.90;;;9.60;99.90;;;;;;5009638;28;20410;-46
2023/02/18 04:54:48;;;;;;;11.77;10.97;;;9.60;99.90;;;;;;5009557;28;20558;-47
2023/02/18 04:57:13;;;;;;;11.80;10.93;;;9.60;99.90;;;;;;5009652;28;20620;-43
2023/02/18 04:59:39;;;;;;;12.20;11.20;;;9.60;99.90;;;;;;5017332;28;20173;-48
2023/02/18 05:02:05;;;;;;;12.60;11.60;;;9.60;99.90;;;;;;5029162;28;20160;-45
2023/02/18 05:04:31;;;;;;;12.90;11.93;;;9.60;99.90;;;;;;5029144;28;20417;-47
2023/02/18 05:06:56;;;;;;;12.90;12.00;;;9.60;99.90;;;;;;5029283;28;20177;-44
2023/02/18 05:09:22;;;;;;;12.03;11.23;;;9.70;99.90;;;;;;5028207;28;20258;-46
2023/02/18 05:11:48;;;;;;;13.43;12.27;;;9.60;99.90;;;;;;5028492;28;20686;-46
2023/02/18 05:14:14;;;;;;;13.20;12.40;;;9.70;99.90;;;;;;5027238;28;20193;-43
2023/02/18 05:16:40;;;;;;;13.03;12.13;;;9.60;99.90;;;;;;5031258;28;20418;-46
2023/02/18 05:19:06;;;;;;;13.57;12.37;;;9.60;99.90;;;;;;5030905;28;20413;-46
2023/02/18 05:21:32;;;;;;;13.37;12.30;;;9.70;99.90;;;;;;5023002;28;20184;-50
2023/02/18 05:23:58;;;;;;;13.63;12.70;;;9.70;99.90;;;;;;5009325;28;20195;-44
2023/02/18 05:26:24;;;;;;;13.40;12.40;;;9.70;99.90;;;;;;5023347;28;20477;-45
2023/02/18 05:28:50;;;;;;;12.80;11.80;;;9.60;99.90;;;;;;5025177;28;20466;-45
2023/02/18 05:31:16;;;;;;;12.73;12.00;;;9.60;99.90;;;;;;5028259;28;20207;-49
2023/02/18 05:33:41;;;;;;;13.30;12.17;;;9.70;99.90;;;;;;5029166;28;20185;-44
2023/02/18 05:36:07;;;;;;;13.37;12.57;;;9.70;99.90;;;;;;5028869;28;20414;-48
2023/02/18 05:38:32;;;;;;;13.63;12.60;;;9.60;99.90;;;;;;5029113;28;20175;-47
2023/02/18 05:40:58;;;;;;;13.70;12.60;;;9.70;99.90;;;;;;5020894;28;20242;-45
2023/02/18 05:43:24;;;;;;;14.00;12.97;;;9.70;99.90;;;;;;5029613;28;20196;-46
2023/02/18 05:45:49;;;;;;;13.83;12.70;;;9.80;99.90;;;;;;5032448;28;20183;-47
2023/02/18 05:48:15;;;;;;;14.17;12.93;;;9.70;99.90;;;;;;5031564;28;20208;-49
2023/02/18 05:50:41;;;;;;;14.00;12.90;;;9.60;99.90;;;;;;5028751;28;20180;-47
2023/02/18 05:53:06;;;;;;;14.27;13.17;;;9.60;99.90;;;;;;5032421;28;20242;-46
2023/02/18 05:55:36;;;;;;;13.90;12.57;;;9.60;99.90;;;;;;5032177;28;20442;-46
2023/02/18 05:58:02;;;;;;;13.60;12.70;;;9.50;99.90;;;;;;5032336;28;20175;-46
2023/02/18 06:00:29;;;;;;;14.97;13.80;;;9.50;99.90;;;;;;5030162;28;20432;-50
2023/02/18 06:02:55;;;;;;;14.10;13.10;;;9.50;99.90;;;;;;5031297;28;20184;-45
2023/02/18 06:05:20;;;;;;;13.57;12.67;;;9.60;99.90;;;;;;5032159;28;20724;-46
2023/02/18 06:07:46;;;;;;;14.20;13.20;;;9.50;99.90;;;;;;5031973;28;20176;-46
2023/02/18 06:10:11;;;;;;;14.70;13.60;;;9.40;99.90;;;;;;5025872;28;20205;-47
2023/02/18 06:12:37;;;;;;;14.77;13.67;;;9.40;99.90;;;;;;5012273;28;20248;-46
2023/02/18 06:15:03;;;;;;;14.93;13.83;;;9.30;99.90;;;;;;5013040;28;20173;-50
2023/02/18 06:17:29;;;;;;;15.40;14.40;;;9.30;99.90;;;;;;5036948;28;20940;-48
2023/02/18 06:19:55;;;;;;;15.67;14.57;;;9.30;99.90;;;;;;5036723;28;20493;-44
2023/02/18 06:22:21;;;;;;;16.57;15.30;;;9.30;99.90;;;;;;5024864;28;20270;-48
2023/02/18 06:24:46;;;;;;;16.90;15.80;;;9.20;99.90;;;;;;5011966;28;20235;-46
2023/02/18 06:27:12;;;;;;;17.00;15.50;;;9.20;99.90;;;;;;5014361;28;20419;-46
2023/02/18 06:29:38;;;;;;;16.40;15.30;;;9.10;99.90;;;;;;5024067;28;20531;-45
2023/02/18 06:32:03;;;;;;;16.50;15.27;;;9.10;99.90;;;;;;5024502;28;20184;-50
2023/02/18 06:34:29;;;;;;;17.20;15.90;;;9.10;99.90;;;;;;5031167;28;20171;-44
2023/02/18 06:36:55;;;;;;;16.47;15.20;;;9.00;99.90;;;;;;5031525;28;20172;-49
2023/02/18 06:39:20;;;;;;;17.07;15.57;;;9.00;99.90;;;;;;5031516;28;20167;-46
2023/02/18 06:41:46;;;;;;;16.83;15.37;;;9.00;99.90;;;;;;5030546;28;20213;-45
2023/02/18 06:44:14;;;;;;;17.60;16.20;;;8.90;99.90;;;;;;5016725;28;20231;-48
2023/02/18 06:46:39;;;;;;;17.83;16.40;;;8.90;99.90;;;;;;5011603;28;20156;-46
2023/02/18 06:49:05;;;;;;;17.47;16.10;;;8.80;99.90;;;;;;5012962;28;20517;-44
2023/02/18 06:51:30;;;;;;;17.57;16.07;;;8.80;99.90;;;;;;5011697;28;20168;-43
2023/02/18 06:53:56;;;;;;;17.17;15.83;;;8.70;99.90;;;;;;5010932;28;20180;-45
2023/02/18 06:56:22;;;;;;;18.47;17.00;;;8.70;99.90;;;;;;5011554;28;20180;-45
2023/02/18 06:58:48;;;;;;;17.23;15.80;;;8.60;99.90;;;;;;5026035;28;20437;-44
2023/02/18 07:01:13;;;;;;;19.30;17.60;;;8.70;99.90;;;;;;5030992;28;20632;-46
2023/02/18 07:03:39;;;;;;;18.70;17.17;;;8.60;99.90;;;;;;5030822;28;20209;-44
2023/02/18 07:06:05;;;;;;;18.13;16.70;;;8.60;99.90;;;;;;5029159;28;20213;-46
2023/02/18 07:08:34;;;;;;;18.10;16.60;;;8.50;99.90;;;;;;5026810;28;20644;-47
2023/02/18 07:11:01;;;;;;;20.40;18.70;;;8.50;99.90;;;;;;5030720;28;20416;-48
2023/02/18 07:13:26;;;;;;;20.63;18.60;;;8.50;99.90;;;;;;5030169;28;20446;-44
2023/02/18 07:15:52;;;;;;;19.83;18.40;;;8.50;99.90;;;;;;5030996;28;20433;-44
2023/02/18 07:18:18;;;;;;;18.50;16.83;;;8.50;99.90;;;;;;5028703;28;20198;-44
2023/02/18 07:20:43;;;;;;;19.70;18.10;;;8.50;99.90;;;;;;5023231;28;20421;-45
2023/02/18 07:23:10;;;;;;;19.40;18.00;;;8.50;99.90;;;;;;5021676;28;20194;-49
2023/02/18 07:25:35;;;;;;;20.40;18.80;;;8.50;99.90;;;;;;5020702;28;20187;-45
2023/02/18 07:28:01;;;;;;;21.80;19.80;;;8.50;99.90;;;;;;5019118;28;20850;-44
2023/02/18 07:30:27;;;;;;;22.73;20.83;;;8.50;99.90;;;;;;5017925;28;20556;-48
2023/02/18 07:32:52;;;;;;;21.87;19.97;;;8.50;99.90;;;;;;5018171;28;20429;-44
2023/02/18 07:35:20;;;;;;;21.90;20.00;;;8.50;99.90;;;;;;5019454;28;21167;-45
2023/02/18 07:37:47;;;;;;;22.27;20.13;;;8.50;99.90;;;;;;5019483;28;20174;-51
2023/02/18 07:40:16;;;;;;;21.57;19.77;;;8.50;99.90;;;;;;5019904;28;20476;-45
2023/02/18 07:42:42;;;;;;;22.97;20.97;;;8.50;99.90;;;;;;5016981;28;20452;-46
2023/02/18 07:45:09;;;;;;;22.83;20.77;;;8.50;99.90;;;;;;5018878;28;21669;-44
2023/02/18 07:47:35;;;;;;;23.60;21.30;;;8.50;99.90;;;;;;5018940;28;21157;-45
2023/02/18 07:50:00;;;;;;;22.70;20.60;;;8.50;99.90;;;;;;5019213;28;20472;-47
2023/02/18 07:52:26;;;;;;;22.83;20.70;;;8.50;99.90;;;;;;5019485;28;20437;-48
2023/02/18 07:54:51;;;;;;;28.17;21.93;;;8.50;99.90;;;;;;5015450;28;20605;-45
2023/02/18 07:57:17;;;;;;;24.63;22.43;;;8.50;99.90;;;;;;5019066;28;20225;-44
2023/02/18 07:59:43;;;;;;;23.80;21.37;;;8.50;99.90;;;;;;5019523;28;20183;-44
2023/02/18 08:02:16;;;;;;;23.63;21.57;;;8.50;99.90;;;;;;5019293;28;20187;-44
2023/02/18 08:04:42;;;;;;;23.13;20.83;;;8.50;99.90;;;;;;5017525;28;20186;-49
2023/02/18 08:07:16;;;;;;;25.33;23.07;;;8.50;99.90;;;;;;5018001;28;20430;-44
2023/02/18 08:09:41;;;;;;;25.43;22.97;;;8.60;99.90;;;;;;5018246;28;20557;-45
2023/02/18 08:12:07;;;;;;;133.47;114.83;;;8.50;99.90;;;;;;5018701;28;20457;-46
2023/02/18 08:14:33;;;;;;;38.40;34.47;;;8.60;99.90;;;;;;5018260;28;20205;-46
2023/02/18 08:16:59;;;;;;;29.93;27.00;;;8.60;99.90;;;;;;5019035;28;20418;-46
2023/02/18 08:19:24;;;;;;;25.03;22.83;;;8.70;99.90;;;;;;5019053;28;20708;-44
2023/02/18 08:21:50;;;;;;;25.97;23.60;;;8.70;99.90;;;;;;5019189;28;20182;-44
2023/02/18 08:24:15;;;;;;;26.23;23.83;;;8.70;99.90;;;;;;5018665;28;20199;-43
2023/02/18 08:26:41;;;;;;;23.70;21.30;;;8.80;99.90;;;;;;5017942;28;20191;-48
2023/02/18 08:29:06;;;;;;;25.00;22.70;;;8.80;99.90;;;;;;5019424;28;20217;-45
2023/02/18 08:31:32;;;;;;;24.40;22.23;;;8.80;99.90;;;;;;5019819;28;20597;-48
2023/02/18 08:33:59;;;;;;;25.00;22.70;;;8.80;99.90;;;;;;5019389;28;20190;-43
2023/02/18 08:36:26;;;;;;;24.93;22.67;;;8.90;99.90;;;;;;5019438;28;20513;-43
2023/02/18 08:38:52;;;;;;;25.03;22.47;;;8.90;99.90;;;;;;5018940;28;20493;-48
2023/02/18 08:41:18;;;;;;;25.57;23.07;;;9.00;99.90;;;;;;5019119;28;20449;-46
2023/02/18 08:43:44;;;;;;;23.97;21.60;;;9.00;99.90;;;;;;5019528;28;20518;-49
2023/02/18 08:46:10;;;;;;;23.13;21.10;;;8.90;99.90;;;;;;5018813;28;20444;-45
2023/02/18 08:48:36;;;;;;;25.60;23.10;;;9.00;99.90;;;;;;5018100;28;20547;-45
2023/02/18 08:51:20;;;;;;;25.27;22.87;;;9.00;99.90;;;;;;5017602;28;20436;-45
2023/02/18 08:53:46;;;;;;;26.10;23.63;;;9.10;99.90;;;;;;5016777;28;21384;-46
2023/02/18 08:56:13;;;;;;;24.97;22.57;;;9.10;99.90;;;;;;5018405;28;20434;-44
2023/02/18 08:58:40;;;;;;;24.60;21.87;;;9.10;99.90;;;;;;5018148;28;20438;-45
2023/02/18 09:01:08;;;;;;;25.00;22.60;;;9.00;99.90;;;;;;5019475;28;20432;-47
2023/02/18 09:03:34;;;;;;;24.90;22.60;;;9.10;99.90;;;;;;5019637;28;20430;-50
2023/02/18 09:06:00;;;;;;;23.90;21.90;;;9.10;99.90;;;;;;5019456;28;20438;-45
2023/02/18 09:08:29;;;;;;;24.83;21.83;;;9.20;99.90;;;;;;5018806;28;20462;-46
2023/02/18 09:10:59;;;;;;;23.30;21.10;;;9.20;99.90;;;;;;5018845;28;20501;-45
2023/02/18 09:13:25;;;;;;;24.03;21.63;;;9.10;99.90;;;;;;5018372;28;20502;-47
2023/02/18 09:15:57;;;;;;;22.30;20.20;;;9.10;99.90;;;;;;5018819;28;20431;-47
2023/02/18 09:18:23;;;;;;;24.77;22.50;;;9.20;99.90;;;;;;5020494;28;20414;-46
2023/02/18 09:20:48;;;;;;;24.93;22.53;;;9.20;99.90;;;;;;5021762;28;20452;-47
2023/02/18 09:23:15;;;;;;;26.33;23.83;;;9.10;99.90;;;;;;5021500;28;20229;-47
2023/02/18 09:25:40;;;;;;;28.47;25.77;;;9.10;99.90;;;;;;5023258;28;20261;-46
2023/02/18 09:28:06;;;;;;;28.10;25.10;;;9.10;99.90;;;;;;5022642;28;20435;-44
2023/02/18 09:30:31;;;;;;;33.70;29.67;;;9.10;99.90;;;;;;5022817;28;20180;-46
2023/02/18 09:32:57;;;;;;;30.10;25.80;;;9.10;99.90;;;;;;5022461;28;20183;-44
2023/02/18 09:35:23;;;;;;;28.40;25.60;;;9.20;99.90;;;;;;5022672;28;20187;-44
2023/02/18 09:37:48;;;;;;;26.00;23.50;;;9.20;99.90;;;;;;5022651;28;20236;-46
2023/02/18 09:40:25;;;;;;;30.30;25.23;;;9.20;99.90;;;;;;5022527;28;20555;-45
2023/02/18 09:42:54;;;;;;;29.10;25.93;;;9.20;99.90;;;;;;5022404;28;20256;-44
2023/02/18 09:45:20;;;;;;;26.63;23.93;;;9.20;99.90;;;;;;5022621;28;20430;-50
2023/02/18 09:47:46;;;;;;;24.00;21.70;;;9.30;99.90;;;;;;5021662;28;21055;-44
2023/02/18 09:50:24;;;;;;;24.87;22.47;;;9.30;99.90;;;;;;5021265;28;20469;-48
2023/02/18 09:52:51;;;;;;;24.90;22.30;;;9.30;99.90;;;;;;5022214;28;20411;-47
2023/02/18 09:55:30;;;;;;;24.60;22.20;;;9.40;99.90;;;;;;5022087;28;20425;-44
2023/02/18 09:58:04;;;;;;;23.20;20.90;;;9.40;99.90;;;;;;5021290;28;20801;-48
2023/02/18 10:00:37;;;;;;;25.67;23.33;;;9.50;99.90;;;;;;5021764;28;20418;-46
2023/02/18 10:03:17;;;;;;;24.93;22.50;;;9.60;99.90;;;;;;5022050;28;20437;-45
2023/02/18 10:05:57;;;;;;;25.20;22.90;;;9.70;99.90;;;;;;5022141;28;20503;-46
2023/02/18 10:08:31;;;;;;;25.87;23.17;;;9.80;99.90;;;;;;5021970;28;20494;-45
2023/02/18 10:10:56;;;;;;;19.60;18.00;;;9.80;99.90;;;;;;5022228;28;20523;-48
2023/02/18 10:13:27;;;;;;;25.67;23.30;;;9.90;99.90;;;;;;5021938;28;21031;-48
2023/02/18 10:15:53;;;;;;;45.03;38.20;;;10.00;99.90;;;;;;5021865;28;20179;-50
2023/02/18 10:18:56;;;;;;;19.67;18.17;;;10.10;99.90;;;;;;5021212;28;20939;-44
2023/02/18 10:21:30;;;;;;;15.90;14.90;;;10.20;99.90;;;;;;5013448;28;20204;-44
2023/02/18 10:24:16;;;;;;;13.70;13.00;;;10.30;99.90;;;;;;5021687;28;20450;-45
2023/02/18 10:26:42;;;;;;;13.43;12.80;;;10.50;99.90;;;;;;5022061;28;20424;-45
2023/02/18 10:29:19;;;;;;;12.60;12.00;;;10.60;99.90;;;;;;5019642;28;20476;-47
2023/02/18 10:31:58;;;;;;;13.27;12.63;;;10.70;99.90;;;;;;5021947;28;20525;-47
2023/02/18 10:34:23;;;;;;;13.00;12.40;;;10.80;99.90;;;;;;5022368;28;21176;-45
2023/02/18 10:37:13;;;;;;;13.07;12.47;;;11.00;99.90;;;;;;5021353;28;20709;-47
2023/02/18 10:40:12;;;;;;;13.30;12.60;;;11.10;99.90;;;;;;5000177;28;20687;-44
2023/02/18 10:42:44;;;;;;;13.10;12.50;;;11.20;99.90;;;;;;5019912;28;20444;-43
2023/02/18 10:45:37;;;;;;;13.40;12.80;;;11.20;99.90;;;;;;5020468;28;20448;-45
2023/02/18 10:48:08;;;;;;;13.13;12.53;;;11.40;99.90;;;;;;5020011;28;20437;-45
2023/02/18 10:50:38;;;;;;;13.43;12.83;;;11.40;99.90;;;;;;5019581;28;20502;-44
2023/02/18 10:53:25;;;;;;;13.43;12.80;;;11.50;99.90;;;;;;5021165;28;20424;-47
2023/02/18 10:55:53;;;;;;;13.17;12.57;;;11.50;99.90;;;;;;5020809;28;20421;-43
2023/02/18 10:58:31;;;;;;;13.50;12.90;;;11.50;99.90;;;;;;5021118;28;20453;-43
2023/02/18 11:00:58;;;;;;;12.50;12.00;;;11.50;99.90;;;;;;5020703;28;20413;-44
2023/02/18 11:03:41;;;;;;;13.00;12.40;;;11.60;99.90;;;;;;5018936;28;20785;-45
2023/02/18 11:06:37;;;;;;;12.93;12.37;;;11.60;99.90;;;;;;5019411;28;20425;-43
2023/02/18 11:09:03;;;;;;;13.27;12.67;;;11.70;99.90;;;;;;5020691;28;20886;-43
2023/02/18 11:11:36;;;;;;;11.70;11.20;;;11.70;99.90;;;;;;5020349;28;20495;-44
2023/02/18 11:14:04;;;;;;;11.43;10.93;;;11.80;99.90;;;;;;5019232;28;20449;-49
2023/02/18 11:16:41;;;;;;;11.50;11.00;;;11.80;99.90;;;;;;5020742;28;20429;-44
2023/02/18 11:19:33;;;;;;;11.07;10.57;;;11.90;99.90;;;;;;5020958;28;20516;-45
2023/02/18 11:22:17;;;;;;;11.00;10.50;;;12.10;99.90;;;;;;5021004;28;20435;-48
2023/02/18 11:24:47;;;;;;;11.07;10.60;;;12.20;99.90;;;;;;5020468;28;20414;-44
2023/02/18 11:27:48;;;;;;;10.77;10.37;;;12.40;99.90;;;;;;5020635;28;20425;-47
2023/02/18 11:30:36;;;;;;;9.90;9.50;;;12.50;99.90;;;;;;5008564;28;20494;-46
2023/02/18 11:33:07;;;;;;;10.20;9.80;;;12.50;99.90;;;;;;5020487;28;20419;-45
2023/02/18 11:35:33;;;;;;;9.63;9.23;;;12.50;99.90;;;;;;5019924;28;20435;-46
2023/02/18 11:38:03;;;;;;;10.10;9.70;;;12.60;99.90;;;;;;5020716;28;20426;-48
2023/02/18 11:40:35;;;;;;;10.83;10.43;;;12.60;99.90;;;;;;5019702;28;20421;-47
2023/02/18 11:43:14;;;;;;;10.27;9.87;;;12.70;99.90;;;;;;5018569;28;20538;-46
2023/02/18 11:45:40;;;;;;;10.20;9.80;;;12.80;99.90;;;;;;5019687;28;20506;-45
2023/02/18 11:48:15;;;;;;;10.00;9.60;;;12.90;99.90;;;;;;5019796;28;20420;-46
2023/02/18 11:50:40;;;;;;;10.10;9.70;;;12.90;99.90;;;;;;5019845;28;20954;-46
2023/02/18 11:53:53;;;;;;;10.00;9.60;;;13.00;99.90;;;;;;5020004;28;20466;-48
2023/02/18 11:56:19;;;;;;;9.33;8.93;;;13.10;99.90;;;;;;5016448;28;20267;-47
2023/02/18 11:58:46;;;;;;;10.73;10.27;;;13.20;99.90;;;;;;5015826;28;20440;-49
2023/02/18 12:01:24;;;;;;;10.17;9.77;;;13.10;99.90;;;;;;5020063;28;20425;-45
2023/02/18 12:04:11;;;;;;;10.00;9.60;;;13.20;99.90;;;;;;5019471;28;20400;-48
2023/02/18 12:06:59;;;;;;;9.60;9.20;;;13.20;99.90;;;;;;5018956;28;20416;-44
2023/02/18 12:09:37;;;;;;;10.60;10.00;;;13.10;99.90;;;;;;5019533;28;20496;-45
2023/02/18 12:12:24;;;;;;;10.43;10.03;;;13.00;99.90;;;;;;5019610;28;20857;-46
2023/02/18 12:14:52;;;;;;;10.33;9.93;;;13.00;99.90;;;;;;5018584;28;20405;-44
2023/02/18 12:17:23;;;;;;;11.00;10.50;;;12.90;99.90;;;;;;5019414;28;21319;-46
2023/02/18 12:20:16;;;;;;;10.50;10.10;;;12.80;99.90;;;;;;5018402;28;20697;-49
2023/02/18 12:22:44;;;;;;;10.37;9.97;;;12.60;99.90;;;;;;5018906;28;20568;-47
2023/02/18 12:25:50;;;;;;;10.83;10.33;;;12.50;99.90;;;;;;5018864;28;20434;-46
2023/02/18 12:28:37;;;;;;;11.20;10.70;;;12.50;99.90;;;;;;5018321;28;20459;-47
2023/02/18 12:31:17;;;;;;;11.20;10.70;;;12.40;99.90;;;;;;5019200;28;20421;-47
2023/02/18 12:34:09;;;;;;;11.50;11.00;;;12.30;99.90;;;;;;5019465;28;20427;-44
2023/02/18 12:37:02;;;;;;;11.90;11.40;;;12.30;99.90;;;;;;5018741;28;20403;-45
2023/02/18 12:40:05;;;;;;;12.20;11.70;;;12.30;99.90;;;;;;5018031;28;20425;-44
2023/02/18 12:42:42;;;;;;;11.90;11.30;;;12.30;99.90;;;;;;5018913;28;20426;-46
2023/02/18 12:45:24;;;;;;;11.70;11.20;;;12.40;99.90;;;;;;5018533;28;20413;-46
2023/02/18 12:48:10;;;;;;;12.43;11.80;;;12.50;99.90;;;;;;5019530;28;20412;-45
2023/02/18 12:50:50;;;;;;;11.20;10.70;;;12.40;99.90;;;;;;5018674;28;20487;-48
2023/02/18 12:53:53;;;;;;;10.77;10.27;;;12.40;99.90;;;;;;5020741;28;20459;-46